createdAt,value
2019-05-19T00:00:09.005Z,14.28
2019-05-19T00:01:08.953Z,14.37
2019-05-19T00:02:08.919Z,14.36
2019-05-19T00:03:08.896Z,14.21
2019-05-19T00:04:08.839Z,14.21
2019-05-19T00:05:08.804Z,14.25
2019-05-19T00:06:08.794Z,14.24
2019-05-19T00:07:08.741Z,14.22
2019-05-19T00:08:08.699Z,14.15
2019-05-19T00:09:08.643Z,14.28
2019-05-19T00:10:08.639Z,14.25
2019-05-19T00:11:08.564Z,14.18
2019-05-19T00:12:08.525Z,14.18
2019-05-19T00:13:08.503Z,14.12
2019-05-19T00:14:08.457Z,14.17
2019-05-19T00:15:08.397Z,14.10
2019-05-19T00:16:08.362Z,14.20
2019-05-19T00:17:08.334Z,14.15
2019-05-19T00:18:08.280Z,14.10
2019-05-19T00:19:08.262Z,14.10
2019-05-19T00:20:08.206Z,14.12
2019-05-19T00:21:08.158Z,14.06
2019-05-19T00:22:08.115Z,14.14
2019-05-19T00:23:08.082Z,14.04
2019-05-19T00:24:08.072Z,14.10
2019-05-19T00:25:07.998Z,14.04
2019-05-19T00:26:07.974Z,14.07
2019-05-19T00:27:07.915Z,14.04
2019-05-19T00:28:07.879Z,14.03
2019-05-19T00:29:07.847Z,14.09
2019-05-19T00:30:07.828Z,14.07
2019-05-19T00:31:07.763Z,14.04
2019-05-19T00:32:07.728Z,13.99
2019-05-19T00:33:07.683Z,14.04
2019-05-19T00:34:07.637Z,14.04
2019-05-19T00:35:07.621Z,14.02
2019-05-19T00:36:07.559Z,14.10
2019-05-19T00:37:07.523Z,13.96
2019-05-19T00:38:07.484Z,13.95
2019-05-19T00:39:07.444Z,13.97
2019-05-19T00:40:07.401Z,13.88
2019-05-19T00:41:07.390Z,13.99
2019-05-19T00:42:07.323Z,13.96
2019-05-19T00:43:07.291Z,13.99
2019-05-19T00:44:07.241Z,13.92
2019-05-19T00:45:07.202Z,13.97
2019-05-19T00:46:07.159Z,13.91
2019-05-19T00:47:07.145Z,13.91
2019-05-19T00:48:07.082Z,13.92
2019-05-19T00:49:07.045Z,13.91
2019-05-19T00:50:07.021Z,13.84
2019-05-19T00:51:06.961Z,13.92
2019-05-19T00:52:06.923Z,13.84
2019-05-19T00:53:06.901Z,13.87
2019-05-19T00:54:06.835Z,13.82
2019-05-19T00:55:06.802Z,13.84
2019-05-19T00:56:06.761Z,13.82
2019-05-19T00:57:06.718Z,13.77
2019-05-19T00:58:06.697Z,13.78
2019-05-19T00:59:06.637Z,13.77
2019-05-19T01:00:06.595Z,13.66
2019-05-19T01:01:06.563Z,13.62
2019-05-19T01:02:06.527Z,13.64
2019-05-19T01:03:06.519Z,13.54
2019-05-19T01:04:06.441Z,13.57
2019-05-19T01:05:06.393Z,13.69
2019-05-19T01:06:06.357Z,13.62
2019-05-19T01:07:06.318Z,13.57
2019-05-19T01:08:06.302Z,13.54
2019-05-19T01:09:06.254Z,13.59
2019-05-19T01:10:06.200Z,13.60
2019-05-19T01:11:06.185Z,13.52
2019-05-19T01:12:06.116Z,13.52
2019-05-19T01:13:06.078Z,13.60
2019-05-19T01:14:06.066Z,13.51
2019-05-19T01:15:05.996Z,13.62
2019-05-19T01:16:05.965Z,13.46
2019-05-19T01:17:05.912Z,13.44
2019-05-19T01:18:05.869Z,13.46
2019-05-19T01:19:05.837Z,13.52
2019-05-19T01:20:05.817Z,13.48
2019-05-19T01:21:05.756Z,13.42
2019-05-19T01:22:05.729Z,13.38
2019-05-19T01:23:05.673Z,13.38
2019-05-19T01:24:05.635Z,13.44
2019-05-19T01:25:05.590Z,13.38
2019-05-19T01:26:05.576Z,13.38
2019-05-19T01:27:05.516Z,13.42
2019-05-19T01:28:05.473Z,13.42
2019-05-19T01:29:05.425Z,13.26
2019-05-19T01:30:05.410Z,13.33
2019-05-19T01:31:05.346Z,13.32
2019-05-19T01:32:05.330Z,13.28
2019-05-19T01:33:05.276Z,13.23
2019-05-19T01:34:05.261Z,13.23
2019-05-19T01:35:05.192Z,13.22
2019-05-19T01:36:05.154Z,13.17
2019-05-19T01:37:05.135Z,13.17
2019-05-19T01:38:05.088Z,13.20
2019-05-19T01:39:05.025Z,13.11
2019-05-19T01:40:04.983Z,13.22
2019-05-19T01:41:04.950Z,13.15
2019-05-19T01:42:04.912Z,13.22
2019-05-19T01:43:04.892Z,13.07
2019-05-19T01:44:04.820Z,13.22
2019-05-19T01:45:04.788Z,13.17
2019-05-19T01:46:04.747Z,13.14
2019-05-19T01:47:04.706Z,13.22
2019-05-19T01:48:04.678Z,13.11
2019-05-19T01:49:04.645Z,13.14
2019-05-19T01:50:17.105Z,13.12
2019-05-19T01:51:04.541Z,13.12
2019-05-19T01:52:04.502Z,13.15
2019-05-19T01:53:04.492Z,13.11
2019-05-19T01:54:04.430Z,13.11
2019-05-19T01:55:04.407Z,13.14
2019-05-19T01:56:04.343Z,13.08
2019-05-19T01:57:04.296Z,13.10
2019-05-19T01:58:04.253Z,13.08
2019-05-19T01:59:04.246Z,13.05
2019-05-19T02:00:04.181Z,13.10
2019-05-19T02:01:04.141Z,13.07
2019-05-19T02:02:04.099Z,13.08
2019-05-19T02:03:04.050Z,13.00
2019-05-19T02:04:04.037Z,13.00
2019-05-19T02:05:03.984Z,13.04
2019-05-19T02:06:03.936Z,13.00
2019-05-19T02:07:03.905Z,13.00
2019-05-19T02:08:03.877Z,13.01
2019-05-19T02:09:03.808Z,12.97
2019-05-19T02:10:03.768Z,12.97
2019-05-19T02:11:03.756Z,12.87
2019-05-19T02:12:03.692Z,12.85
2019-05-19T02:13:05.230Z,12.96
2019-05-19T02:14:03.614Z,12.96
2019-05-19T02:15:03.597Z,13.07
2019-05-19T02:16:03.535Z,13.01
2019-05-19T02:17:03.514Z,12.83
2019-05-19T02:18:03.453Z,12.85
2019-05-19T02:19:03.410Z,12.87
2019-05-19T02:20:03.372Z,12.85
2019-05-19T02:21:03.323Z,12.82
2019-05-19T02:22:03.313Z,12.71
2019-05-19T02:23:03.244Z,12.77
2019-05-19T02:24:03.204Z,12.68
2019-05-19T02:25:03.177Z,12.72
2019-05-19T02:26:03.136Z,12.70
2019-05-19T02:27:03.113Z,12.64
2019-05-19T02:28:03.058Z,12.78
2019-05-19T02:29:03.001Z,12.75
2019-05-19T02:30:03.131Z,12.72
2019-05-19T02:31:02.924Z,12.72
2019-05-19T02:32:02.911Z,12.72
2019-05-19T02:33:02.845Z,12.68
2019-05-19T02:34:02.814Z,12.67
2019-05-19T02:35:02.761Z,12.57
2019-05-19T02:36:02.737Z,12.64
2019-05-19T02:37:02.690Z,12.67
2019-05-19T02:38:02.643Z,12.57
2019-05-19T02:39:02.606Z,12.57
2019-05-19T02:40:02.564Z,12.50
2019-05-19T02:41:02.554Z,12.42
2019-05-19T02:42:02.473Z,12.41
2019-05-19T02:43:02.434Z,12.46
2019-05-19T02:44:02.389Z,12.46
2019-05-19T02:45:02.357Z,12.42
2019-05-19T02:46:02.315Z,12.39
2019-05-19T02:47:02.294Z,12.42
2019-05-19T02:48:02.239Z,12.46
2019-05-19T02:49:02.199Z,12.42
2019-05-19T02:50:02.163Z,12.41
2019-05-19T02:51:02.110Z,12.29
2019-05-19T02:52:02.083Z,12.39
2019-05-19T02:53:02.046Z,12.31
2019-05-19T02:54:01.988Z,12.29
2019-05-19T02:55:01.949Z,12.27
2019-05-19T02:56:01.904Z,12.42
2019-05-19T02:57:01.896Z,12.32
2019-05-19T02:58:01.823Z,12.34
2019-05-19T02:59:01.781Z,12.31
2019-05-19T03:00:01.765Z,12.28
2019-05-19T03:01:01.710Z,12.27
2019-05-19T03:02:01.652Z,12.19
2019-05-19T03:03:01.646Z,12.24
2019-05-19T03:04:01.584Z,12.17
2019-05-19T03:05:01.544Z,12.13
2019-05-19T03:06:01.492Z,12.17
2019-05-19T03:07:01.454Z,12.17
2019-05-19T03:08:01.410Z,12.16
2019-05-19T03:09:01.400Z,12.12
2019-05-19T03:10:01.367Z,12.17
2019-05-19T03:11:01.296Z,12.17
2019-05-19T03:12:01.252Z,12.20
2019-05-19T03:13:01.244Z,12.19
2019-05-19T03:14:01.193Z,12.16
2019-05-19T03:15:01.152Z,12.19
2019-05-19T03:16:01.104Z,12.13
2019-05-19T03:17:01.048Z,12.10
2019-05-19T03:18:01.012Z,12.01
2019-05-19T03:19:00.961Z,12.02
2019-05-19T03:20:00.923Z,12.04
2019-05-19T03:21:10.338Z,12.16
2019-05-19T03:22:00.846Z,12.19
2019-05-19T03:23:00.801Z,12.13
2019-05-19T03:24:00.767Z,12.21
2019-05-19T03:25:00.717Z,12.17
2019-05-19T03:26:00.695Z,12.16
2019-05-19T03:27:00.637Z,12.16
2019-05-19T03:28:00.598Z,12.12
2019-05-19T03:29:00.562Z,12.13
2019-05-19T03:30:00.520Z,12.12
2019-05-19T03:31:00.503Z,12.14
2019-05-19T03:32:00.445Z,12.16
2019-05-19T03:33:00.392Z,12.09
2019-05-19T03:34:00.347Z,12.12
2019-05-19T03:35:00.351Z,12.19
2019-05-19T03:36:00.297Z,12.16
2019-05-19T03:37:00.226Z,12.13
2019-05-19T03:38:00.186Z,12.16
2019-05-19T03:39:00.146Z,12.16
2019-05-19T03:40:00.103Z,12.13
2019-05-19T03:41:00.089Z,12.12
2019-05-19T03:42:00.034Z,12.14
2019-05-19T03:42:59.997Z,12.12
2019-05-19T03:44:00.015Z,12.17
2019-05-19T03:44:59.898Z,11.98
2019-05-19T03:45:59.855Z,12.02
2019-05-19T03:46:59.838Z,12.05
2019-05-19T03:47:59.775Z,12.12
2019-05-19T03:48:59.741Z,12.05
2019-05-19T03:49:59.701Z,11.99
2019-05-19T03:50:59.653Z,12.02
2019-05-19T03:51:59.639Z,12.02
2019-05-19T03:52:59.578Z,12.09
2019-05-19T03:53:59.560Z,12.17
2019-05-19T03:54:59.492Z,12.21
2019-05-19T03:55:59.455Z,12.19
2019-05-19T03:56:59.403Z,12.16
2019-05-19T03:57:59.391Z,12.14
2019-05-19T03:58:59.333Z,12.14
2019-05-19T03:59:59.311Z,12.14
2019-05-19T04:00:59.249Z,12.23
2019-05-19T04:01:59.218Z,12.20
2019-05-19T04:02:59.174Z,12.21
2019-05-19T04:03:59.133Z,12.32
2019-05-19T04:04:59.089Z,12.32
2019-05-19T04:05:59.067Z,12.27
2019-05-19T04:06:59.002Z,12.28
2019-05-19T04:07:58.961Z,12.34
2019-05-19T04:08:58.917Z,12.31
2019-05-19T04:09:58.875Z,12.27
2019-05-19T04:10:58.834Z,12.42
2019-05-19T04:11:58.811Z,12.45
2019-05-19T04:12:58.774Z,12.54
2019-05-19T04:13:58.718Z,12.52
2019-05-19T04:14:58.674Z,12.64
2019-05-19T04:15:58.661Z,12.64
2019-05-19T04:16:58.590Z,12.77
2019-05-19T04:17:58.571Z,12.77
2019-05-19T04:18:58.506Z,12.75
2019-05-19T04:19:58.469Z,12.86
2019-05-19T04:20:58.429Z,12.85
2019-05-19T04:21:58.408Z,12.87
2019-05-19T04:22:58.342Z,12.87
2019-05-19T04:23:58.304Z,12.85
2019-05-19T04:24:58.266Z,12.87
2019-05-19T04:25:58.252Z,12.96
2019-05-19T04:26:58.212Z,12.89
2019-05-19T04:27:58.145Z,12.93
2019-05-19T04:28:58.110Z,12.92
2019-05-19T04:29:58.057Z,13.04
2019-05-19T04:30:58.020Z,13.00
2019-05-19T04:31:57.974Z,13.05
2019-05-19T04:32:57.963Z,13.11
2019-05-19T04:33:57.899Z,13.19
2019-05-19T04:34:57.863Z,13.22
2019-05-19T04:35:57.821Z,13.25
2019-05-19T04:36:57.782Z,13.30
2019-05-19T04:37:57.752Z,13.28
2019-05-19T04:38:57.698Z,13.32
2019-05-19T04:39:57.660Z,13.30
2019-05-19T04:40:57.620Z,13.32
2019-05-19T04:41:57.573Z,13.41
2019-05-19T04:42:57.556Z,13.45
2019-05-19T04:43:57.495Z,13.49
2019-05-19T04:44:57.499Z,13.57
2019-05-19T04:45:57.417Z,13.62
2019-05-19T04:46:57.377Z,13.60
2019-05-19T04:47:57.342Z,13.66
2019-05-19T04:48:57.291Z,13.71
2019-05-19T04:49:57.253Z,13.67
2019-05-19T04:50:57.236Z,13.67
2019-05-19T04:52:06.749Z,13.73
2019-05-19T04:52:57.138Z,13.82
2019-05-19T04:53:57.097Z,13.78
2019-05-19T04:54:57.086Z,13.95
2019-05-19T04:55:57.012Z,13.99
2019-05-19T04:56:56.980Z,14.17
2019-05-19T04:57:56.939Z,14.35
2019-05-19T04:58:56.897Z,14.43
2019-05-19T04:59:56.859Z,14.69
2019-05-19T05:00:56.848Z,15.07
2019-05-19T05:01:56.770Z,15.44
2019-05-19T05:02:56.735Z,15.72
2019-05-19T05:03:56.692Z,15.92
2019-05-19T05:04:56.659Z,16.00
2019-05-19T05:05:56.616Z,16.01
2019-05-19T05:06:56.600Z,16.01
2019-05-19T05:07:56.541Z,15.93
2019-05-19T05:08:56.494Z,15.71
2019-05-19T05:09:56.456Z,15.49
2019-05-19T05:10:56.419Z,15.36
2019-05-19T05:11:56.407Z,15.29
2019-05-19T05:12:56.337Z,15.36
2019-05-19T05:13:56.297Z,15.23
2019-05-19T05:14:56.254Z,15.25
2019-05-19T05:15:56.218Z,15.17
2019-05-19T05:16:56.188Z,15.17
2019-05-19T05:17:56.173Z,15.23
2019-05-19T05:18:56.103Z,15.31
2019-05-19T05:19:56.073Z,15.41
2019-05-19T05:20:56.044Z,15.43
2019-05-19T05:21:55.989Z,15.47
2019-05-19T05:22:55.979Z,15.50
2019-05-19T05:23:55.927Z,15.67
2019-05-19T05:24:55.874Z,15.72
2019-05-19T05:25:55.830Z,15.80
2019-05-19T05:26:55.788Z,15.90
2019-05-19T05:27:55.773Z,15.84
2019-05-19T05:28:55.719Z,16.00
2019-05-19T05:29:55.727Z,16.01
2019-05-19T05:30:55.640Z,16.17
2019-05-19T05:31:55.607Z,16.14
2019-05-19T05:32:55.598Z,16.33
2019-05-19T05:33:55.544Z,16.45
2019-05-19T05:34:55.476Z,16.49
2019-05-19T05:35:55.444Z,16.67
2019-05-19T05:36:55.408Z,16.91
2019-05-19T05:37:55.367Z,16.91
2019-05-19T05:38:55.327Z,17.01
2019-05-19T05:39:55.320Z,17.19
2019-05-19T05:40:55.244Z,17.33
2019-05-19T05:41:55.236Z,17.36
2019-05-19T05:42:55.230Z,17.31
2019-05-19T05:43:55.141Z,17.33
2019-05-19T05:44:55.094Z,17.43
2019-05-19T05:45:55.084Z,17.41
2019-05-19T05:46:55.019Z,17.46
2019-05-19T05:47:54.977Z,17.49
2019-05-19T05:48:54.954Z,17.75
2019-05-19T05:49:54.912Z,17.90
2019-05-19T05:50:54.864Z,18.23
2019-05-19T05:51:54.848Z,18.17
2019-05-19T05:52:54.821Z,18.36
2019-05-19T05:53:54.764Z,18.36
2019-05-19T05:54:54.721Z,18.29
2019-05-19T05:55:54.680Z,18.58
2019-05-19T05:56:54.644Z,18.44
2019-05-19T05:57:54.630Z,18.48
2019-05-19T05:58:54.568Z,18.81
2019-05-19T05:59:54.533Z,18.80
2019-05-19T06:00:54.488Z,18.90
2019-05-19T06:01:54.456Z,19.07
2019-05-19T06:02:54.419Z,19.26
2019-05-19T06:03:54.402Z,19.71
2019-05-19T06:04:54.346Z,19.69
2019-05-19T06:05:54.312Z,19.76
2019-05-19T06:06:54.277Z,19.87
2019-05-19T06:07:54.237Z,20.17
2019-05-19T06:08:54.217Z,20.66
2019-05-19T06:09:54.154Z,21.14
2019-05-19T06:10:54.119Z,21.58
2019-05-19T06:11:54.085Z,21.86
2019-05-19T06:12:54.049Z,22.33
2019-05-19T06:13:54.049Z,22.92
2019-05-19T06:14:53.973Z,23.04
2019-05-19T06:15:53.935Z,23.53
2019-05-19T06:16:53.905Z,23.79
2019-05-19T06:17:53.881Z,23.68
2019-05-19T06:18:56.701Z,24.21
2019-05-19T06:19:53.828Z,24.76
2019-05-19T06:20:53.764Z,25.32
2019-05-19T06:21:53.755Z,25.51
2019-05-19T06:22:57.025Z,25.85
2019-05-19T06:23:53.652Z,25.64
2019-05-19T06:24:53.628Z,25.52
2019-05-19T06:25:53.590Z,25.51
2019-05-19T06:26:53.555Z,25.28
2019-05-19T06:27:53.550Z,24.69
2019-05-19T06:28:53.484Z,24.53
2019-05-19T06:29:53.446Z,24.87
2019-05-19T06:30:53.419Z,24.91
2019-05-19T06:31:53.409Z,25.23
2019-05-19T06:32:53.375Z,25.10
2019-05-19T06:33:53.313Z,25.38
2019-05-19T06:34:53.286Z,25.35
2019-05-19T06:35:53.249Z,25.54
2019-05-19T06:36:55.111Z,25.72
2019-05-19T06:37:53.186Z,25.33
2019-05-19T06:38:53.187Z,25.52
2019-05-19T06:39:53.121Z,25.99
2019-05-19T06:40:53.083Z,25.69
2019-05-19T06:41:53.042Z,25.82
2019-05-19T06:42:53.018Z,26.55
2019-05-19T06:43:53.005Z,26.51
2019-05-19T06:44:52.954Z,26.60
2019-05-19T06:45:52.914Z,27.03
2019-05-19T06:46:52.878Z,27.24
2019-05-19T06:47:52.883Z,27.21
2019-05-19T06:48:52.841Z,26.40
2019-05-19T06:49:52.813Z,25.64
2019-05-19T06:50:52.754Z,25.82
2019-05-19T06:51:52.724Z,25.88
2019-05-19T06:52:52.680Z,25.82
2019-05-19T06:53:52.651Z,26.32
2019-05-19T06:54:52.618Z,25.77
2019-05-19T06:55:52.611Z,26.28
2019-05-19T06:56:52.580Z,26.36
2019-05-19T06:57:52.525Z,26.37
2019-05-19T06:58:52.491Z,25.70
2019-05-19T06:59:52.462Z,25.08
2019-05-19T07:00:52.426Z,24.45
2019-05-19T07:01:52.416Z,24.06
2019-05-19T07:02:52.363Z,24.00
2019-05-19T07:03:52.354Z,23.94
2019-05-19T07:04:52.295Z,23.72
2019-05-19T07:05:52.264Z,23.05
2019-05-19T07:06:52.549Z,22.39
2019-05-19T07:07:52.194Z,22.18
2019-05-19T07:08:52.210Z,22.02
2019-05-19T07:09:58.549Z,21.50
2019-05-19T07:10:52.102Z,21.10
2019-05-19T07:11:52.072Z,20.72
2019-05-19T07:12:52.039Z,20.36
2019-05-19T07:13:52.003Z,20.32
2019-05-19T07:14:51.989Z,20.20
2019-05-19T07:15:51.935Z,19.88
2019-05-19T07:16:51.908Z,19.80
2019-05-19T07:17:51.894Z,19.92
2019-05-19T07:18:51.830Z,19.99
2019-05-19T07:19:51.845Z,20.14
2019-05-19T07:20:51.768Z,20.36
2019-05-19T07:21:51.733Z,20.31
2019-05-19T07:22:51.701Z,20.35
2019-05-19T07:23:51.666Z,20.29
2019-05-19T07:24:51.624Z,20.51
2019-05-19T07:25:51.621Z,20.74
2019-05-19T07:26:51.558Z,20.97
2019-05-19T07:27:51.525Z,21.12
2019-05-19T07:28:51.496Z,21.22
2019-05-19T07:29:51.463Z,21.16
2019-05-19T07:30:51.442Z,21.14
2019-05-19T07:31:51.421Z,21.61
2019-05-19T07:32:51.353Z,21.99
2019-05-19T07:33:51.317Z,21.64
2019-05-19T07:34:51.289Z,21.69
2019-05-19T07:35:51.255Z,21.56
2019-05-19T07:36:51.258Z,21.62
2019-05-19T07:37:51.190Z,21.53
2019-05-19T07:38:51.147Z,21.35
2019-05-19T07:39:51.112Z,21.19
2019-05-19T07:40:51.102Z,21.40
2019-05-19T07:41:51.053Z,21.68
2019-05-19T07:42:51.036Z,21.62
2019-05-19T07:43:50.980Z,21.47
2019-05-19T07:44:50.939Z,21.21
2019-05-19T07:45:50.929Z,21.34
2019-05-19T07:46:50.871Z,21.40
2019-05-19T07:47:50.834Z,21.61
2019-05-19T07:48:50.875Z,21.80
2019-05-19T07:49:50.771Z,21.88
2019-05-19T07:50:50.740Z,21.84
2019-05-19T07:51:50.700Z,21.37
2019-05-19T07:52:50.678Z,21.25
2019-05-19T07:53:50.681Z,21.16
2019-05-19T07:54:50.625Z,21.22
2019-05-19T07:55:50.595Z,21.27
2019-05-19T07:56:50.570Z,21.44
2019-05-19T07:57:50.502Z,21.43
2019-05-19T07:58:50.462Z,21.50
2019-05-19T07:59:50.430Z,21.82
2019-05-19T08:00:50.425Z,22.10
2019-05-19T08:01:50.405Z,21.86
2019-05-19T08:02:50.333Z,22.09
2019-05-19T08:03:50.300Z,22.07
2019-05-19T08:04:50.261Z,22.14
2019-05-19T08:05:50.254Z,22.40
2019-05-19T08:06:50.194Z,22.54
2019-05-19T08:07:50.163Z,22.14
2019-05-19T08:08:50.123Z,22.43
2019-05-19T08:09:50.087Z,22.79
2019-05-19T08:10:50.065Z,22.68
2019-05-19T08:11:50.047Z,22.79
2019-05-19T08:12:49.996Z,22.95
2019-05-19T08:13:49.965Z,22.73
2019-05-19T08:14:49.929Z,22.60
2019-05-19T08:15:49.922Z,22.58
2019-05-19T08:16:49.859Z,22.51
2019-05-19T08:17:49.837Z,22.24
2019-05-19T08:18:49.845Z,22.37
2019-05-19T08:19:49.781Z,22.75
2019-05-19T08:20:49.758Z,23.02
2019-05-19T08:21:49.705Z,23.42
2019-05-19T08:22:51.463Z,24.10
2019-05-19T08:23:59.990Z,24.32
2019-05-19T08:24:49.619Z,24.77
2019-05-19T08:25:49.568Z,24.64
2019-05-19T08:26:49.531Z,25.00
2019-05-19T08:27:49.501Z,24.99
2019-05-19T08:28:49.490Z,25.52
2019-05-19T08:29:49.446Z,25.64
2019-05-19T08:30:49.396Z,25.62
2019-05-19T08:31:49.384Z,24.84
2019-05-19T08:32:49.442Z,25.45
2019-05-19T08:33:49.329Z,25.23
2019-05-19T08:34:49.303Z,25.00
2019-05-19T08:35:49.510Z,25.09
2019-05-19T08:36:49.209Z,25.61
2019-05-19T08:37:49.170Z,25.72
2019-05-19T08:38:49.147Z,25.97
2019-05-19T08:39:49.126Z,25.87
2019-05-19T08:40:49.144Z,25.03
2019-05-19T08:41:49.114Z,24.99
2019-05-19T08:42:49.029Z,25.36
2019-05-19T08:43:48.986Z,25.77
2019-05-19T08:44:48.989Z,26.02
2019-05-19T08:45:48.935Z,26.07
2019-05-19T08:46:48.907Z,25.95
2019-05-19T08:47:48.881Z,26.02
2019-05-19T08:48:48.838Z,26.43
2019-05-19T08:49:48.837Z,26.55
2019-05-19T08:50:48.778Z,26.50
2019-05-19T08:51:48.754Z,26.52
2019-05-19T08:52:48.727Z,26.87
2019-05-19T08:53:48.694Z,27.39
2019-05-19T08:54:48.679Z,26.57
2019-05-19T08:55:48.627Z,26.28
2019-05-19T08:56:48.606Z,25.65
2019-05-19T08:57:48.573Z,25.60
2019-05-19T08:58:48.546Z,25.24
2019-05-19T08:59:48.539Z,25.51
2019-05-19T09:00:48.484Z,25.83
2019-05-19T09:01:48.452Z,26.18
2019-05-19T09:02:48.441Z,26.36
2019-05-19T09:03:48.421Z,25.83
2019-05-19T09:04:48.369Z,26.35
2019-05-19T09:05:48.339Z,26.30
2019-05-19T09:06:48.310Z,26.12
2019-05-19T09:07:48.279Z,25.94
2019-05-19T09:08:48.242Z,26.18
2019-05-19T09:09:48.269Z,27.00
2019-05-19T09:10:48.214Z,27.69
2019-05-19T09:11:48.178Z,28.07
2019-05-19T09:12:48.126Z,28.09
2019-05-19T09:13:48.123Z,27.67
2019-05-19T09:14:48.068Z,27.60
2019-05-19T09:15:48.062Z,25.95
2019-05-19T09:16:48.021Z,26.40
2019-05-19T09:17:47.986Z,26.32
2019-05-19T09:18:47.967Z,26.37
2019-05-19T09:19:47.931Z,26.85
2019-05-19T09:20:47.920Z,26.72
2019-05-19T09:21:47.897Z,26.84
2019-05-19T09:22:47.835Z,25.76
2019-05-19T09:23:47.820Z,25.90
2019-05-19T09:24:47.790Z,26.35
2019-05-19T09:25:47.784Z,26.66
2019-05-19T09:26:47.729Z,26.95
2019-05-19T09:27:47.698Z,27.49
2019-05-19T09:28:47.675Z,27.90
2019-05-19T09:29:47.646Z,28.29
2019-05-19T09:30:47.684Z,28.30
2019-05-19T09:31:48.363Z,27.96
2019-05-19T09:32:47.555Z,27.44
2019-05-19T09:33:47.562Z,27.81
2019-05-19T09:34:47.500Z,27.82
2019-05-19T09:35:47.469Z,28.36
2019-05-19T09:36:47.446Z,27.82
2019-05-19T09:37:47.425Z,27.85
2019-05-19T09:38:47.391Z,27.49
2019-05-19T09:39:47.390Z,27.87
2019-05-19T09:40:47.331Z,28.46
2019-05-19T09:41:47.311Z,27.99
2019-05-19T09:42:47.425Z,27.62
2019-05-19T09:43:47.256Z,27.84
2019-05-19T09:44:47.246Z,28.22
2019-05-19T09:45:47.192Z,28.56
2019-05-19T09:46:47.170Z,28.96
2019-05-19T09:47:47.144Z,29.28
2019-05-19T09:48:47.162Z,29.00
2019-05-19T09:49:47.095Z,29.36
2019-05-19T09:50:47.067Z,28.93
2019-05-19T09:51:47.087Z,28.43
2019-05-19T09:52:47.011Z,28.48
2019-05-19T09:53:47.013Z,28.24
2019-05-19T09:54:46.958Z,27.92
2019-05-19T09:55:46.935Z,27.72
2019-05-19T09:56:46.916Z,28.11
2019-05-19T09:57:46.887Z,28.09
2019-05-19T09:58:46.859Z,27.59
2019-05-19T09:59:46.859Z,27.27
2019-05-19T10:00:46.811Z,27.28
2019-05-19T10:01:46.784Z,27.51
2019-05-19T10:02:46.757Z,27.41
2019-05-19T10:03:46.737Z,27.14
2019-05-19T10:04:46.702Z,26.45
2019-05-19T10:05:46.703Z,26.47
2019-05-19T10:06:46.687Z,26.85
2019-05-19T10:07:46.649Z,27.09
2019-05-19T10:08:46.600Z,27.75
2019-05-19T10:09:46.571Z,27.46
2019-05-19T10:10:46.547Z,27.47
2019-05-19T10:11:46.531Z,27.60
2019-05-19T10:12:46.481Z,27.25
2019-05-19T10:13:46.483Z,27.12
2019-05-19T10:14:46.442Z,27.62
2019-05-19T10:15:46.410Z,27.78
2019-05-19T10:16:46.383Z,27.82
2019-05-19T10:17:46.348Z,27.59
2019-05-19T10:18:46.353Z,27.75
2019-05-19T10:19:46.301Z,27.49
2019-05-19T10:20:46.281Z,27.51
2019-05-19T10:21:46.276Z,27.79
2019-05-19T10:22:46.221Z,27.97
2019-05-19T10:23:46.196Z,27.49
2019-05-19T10:25:04.210Z,27.60
2019-05-19T10:25:46.127Z,27.79
2019-05-19T10:26:46.111Z,27.37
2019-05-19T10:27:46.080Z,27.37
2019-05-19T10:28:46.057Z,27.36
2019-05-19T10:29:46.039Z,27.59
2019-05-19T10:30:46.030Z,27.31
2019-05-19T10:31:45.969Z,27.43
2019-05-19T10:32:45.947Z,27.55
2019-05-19T10:33:45.914Z,27.40
2019-05-19T10:34:45.884Z,27.04
2019-05-19T10:35:45.859Z,26.47
2019-05-19T10:36:45.849Z,25.35
2019-05-19T10:37:45.798Z,25.35
2019-05-19T10:38:45.772Z,25.62
2019-05-19T10:39:45.770Z,25.88
2019-05-19T10:40:45.717Z,26.13
2019-05-19T10:41:45.702Z,26.09
2019-05-19T10:42:45.663Z,26.43
2019-05-19T10:43:45.632Z,26.23
2019-05-19T10:44:45.601Z,25.90
2019-05-19T10:45:45.606Z,25.57
2019-05-19T10:46:45.554Z,25.72
2019-05-19T10:47:45.519Z,25.76
2019-05-19T10:48:45.483Z,25.32
2019-05-19T10:49:45.497Z,25.76
2019-05-19T10:50:45.443Z,25.46
2019-05-19T10:51:45.452Z,25.67
2019-05-19T10:52:45.368Z,25.64
2019-05-19T10:53:45.338Z,25.60
2019-05-19T10:54:45.310Z,25.64
2019-05-19T10:55:45.286Z,25.69
2019-05-19T10:56:45.248Z,25.73
2019-05-19T10:57:45.242Z,25.85
2019-05-19T10:58:45.195Z,26.10
2019-05-19T10:59:45.178Z,26.20
2019-05-19T11:00:45.141Z,26.40
2019-05-19T11:01:45.108Z,26.65
2019-05-19T11:02:45.091Z,26.69
2019-05-19T11:03:45.037Z,26.95
2019-05-19T11:04:45.018Z,27.39
2019-05-19T11:05:44.987Z,27.10
2019-05-19T11:06:44.959Z,27.06
2019-05-19T11:07:44.955Z,27.07
2019-05-19T11:08:44.893Z,26.26
2019-05-19T11:09:44.898Z,25.76
2019-05-19T11:10:44.834Z,25.94
2019-05-19T11:11:44.816Z,25.99
2019-05-19T11:12:46.953Z,26.12
2019-05-19T11:13:44.783Z,26.07
2019-05-19T11:14:44.726Z,26.09
2019-05-19T11:15:44.693Z,26.18
2019-05-19T11:16:44.665Z,26.21
2019-05-19T11:17:44.630Z,25.97
2019-05-19T11:18:44.606Z,25.72
2019-05-19T11:19:44.604Z,25.57
2019-05-19T11:20:44.541Z,25.69
2019-05-19T11:21:44.518Z,25.75
2019-05-19T11:22:44.480Z,25.69
2019-05-19T11:23:44.455Z,25.65
2019-05-19T11:24:44.455Z,25.97
2019-05-19T11:25:51.392Z,25.73
2019-05-19T11:26:44.368Z,25.30
2019-05-19T11:27:44.341Z,25.54
2019-05-19T11:28:44.309Z,25.83
2019-05-19T11:29:44.277Z,25.67
2019-05-19T11:30:44.270Z,25.65
2019-05-19T11:31:44.210Z,25.64
2019-05-19T11:32:44.194Z,25.91
2019-05-19T11:33:44.160Z,25.98
2019-05-19T11:34:44.123Z,25.95
2019-05-19T11:35:44.122Z,26.01
2019-05-19T11:36:44.071Z,25.97
2019-05-19T11:37:44.041Z,26.07
2019-05-19T11:38:44.011Z,26.47
2019-05-19T11:39:43.982Z,26.25
2019-05-19T11:40:43.945Z,26.18
2019-05-19T11:41:43.947Z,26.09
2019-05-19T11:42:46.777Z,26.13
2019-05-19T11:43:43.870Z,26.18
2019-05-19T11:44:43.836Z,26.43
2019-05-19T11:45:43.805Z,26.32
2019-05-19T11:46:43.788Z,26.29
2019-05-19T11:47:43.769Z,26.43
2019-05-19T11:48:43.711Z,26.62
2019-05-19T11:49:43.679Z,26.40
2019-05-19T11:50:43.656Z,26.40
2019-05-19T11:51:43.623Z,26.55
2019-05-19T11:52:43.589Z,26.63
2019-05-19T11:53:43.585Z,26.36
2019-05-19T11:54:43.529Z,26.09
2019-05-19T11:55:43.499Z,25.98
2019-05-19T11:56:43.479Z,26.37
2019-05-19T11:57:43.444Z,26.44
2019-05-19T11:58:43.439Z,26.55
2019-05-19T11:59:43.384Z,25.92
2019-05-19T12:00:43.403Z,26.28
2019-05-19T12:01:43.321Z,26.60
2019-05-19T12:02:43.294Z,26.91
2019-05-19T12:03:43.267Z,27.10
2019-05-19T12:04:43.287Z,27.47
2019-05-19T12:05:43.209Z,27.57
2019-05-19T12:06:43.187Z,27.31
2019-05-19T12:07:43.176Z,27.36
2019-05-19T12:08:43.138Z,27.29
2019-05-19T12:09:43.110Z,27.07
2019-05-19T12:10:43.075Z,27.02
2019-05-19T12:11:43.034Z,26.87
2019-05-19T12:12:43.001Z,26.92
2019-05-19T12:13:42.994Z,26.87
2019-05-19T12:14:42.947Z,27.21
2019-05-19T12:15:42.910Z,26.87
2019-05-19T12:16:42.892Z,26.54
2019-05-19T12:17:42.866Z,26.52
2019-05-19T12:18:42.861Z,26.07
2019-05-19T12:19:42.804Z,25.98
2019-05-19T12:20:42.773Z,26.02
2019-05-19T12:21:42.745Z,25.67
2019-05-19T12:22:42.726Z,25.60
2019-05-19T12:23:42.696Z,25.65
2019-05-19T12:24:42.675Z,25.82
2019-05-19T12:25:42.626Z,25.98
2019-05-19T12:26:42.597Z,26.06
2019-05-19T12:27:42.579Z,25.94
2019-05-19T12:28:42.552Z,25.45
2019-05-19T12:29:42.544Z,25.30
2019-05-19T12:30:42.494Z,24.99
2019-05-19T12:31:42.469Z,25.08
2019-05-19T12:32:42.465Z,25.08
2019-05-19T12:33:51.598Z,25.15
2019-05-19T12:34:42.372Z,25.08
2019-05-19T12:35:42.359Z,25.13
2019-05-19T12:36:42.308Z,25.13
2019-05-19T12:37:42.278Z,25.25
2019-05-19T12:38:42.243Z,25.35
2019-05-19T12:39:42.206Z,25.52
2019-05-19T12:40:42.244Z,25.73
2019-05-19T12:41:42.151Z,25.75
2019-05-19T12:42:42.145Z,25.51
2019-05-19T12:43:42.135Z,25.67
2019-05-19T12:44:42.053Z,25.77
2019-05-19T12:45:42.057Z,25.64
2019-05-19T12:46:42.013Z,25.67
2019-05-19T12:47:41.964Z,25.82
2019-05-19T12:48:41.937Z,25.97
2019-05-19T12:49:41.903Z,26.17
2019-05-19T12:50:41.873Z,26.06
2019-05-19T12:51:41.872Z,25.99